Startpagina
METAR-TAF:

METAR-TAF

Vliegvelden :

Luchthaven Satu Mare

Satu Mare, Roemenië

breedte: 47-48N, lengte: 022-53E, hoogte: 123 m

Actueel weer

Dit bericht is 33 minuten geleden gemaakt, om 11:00 UTC
Wind 6 kt uit het noordoosten, variërend tussen het noorden en het oostnoordoosten
Temperatuur 22°C
Vochtigheid 50%
Druk 1019 hPa
Zicht 10 km of meer
Weinig wolken op 4900 ft

METAR: LRSM 201100Z AUTO 04006KT 350V070 9999 R19/1800VP2000D FEW049 22/11 Q1019

Tijdstip: 14:33 (11:33 UTC)

Verwachting

Dit bericht is 21 uur en het 33 minuten geleden gemaakt, om 14:00 UTC
Verwachting geldig van 19 om 15 UTC tot 19 om 24 UTC
Wind 8 kt uit het noordnoordwesten
Zicht 10 km of meer
Verspreide wolken op 3500 ft, Cumulonimbus.
Tijdelijke
van 19 om 15 UTC tot 19 om 17 UTC
onweer, lichte regen
Wijzigt naar
van 19 om 17 UTC tot 19 om 18 UTC

TAF: LRSM 191400Z 1915/1924 34008KT 9999 SCT035CB TEMPO 1915/1917 -TSRA BECMG 1917/1918 NSC

Waarnemingen en weersverwachtingen van meer dan 4000 vliegvelden (METAR en TAF).

De beschikbare stations zijn de gele en rode punten op de kaart.

Ga met uw muis naar het station om de naam te zien.

Klik dan om waarnemingen en weersverwachtingen te zien.

kaart wijzigen: klik op de groene knoppen met een zwart kruis om in te zoomen, op de groene knop met een streepje om uit te zoomen of op de groene pijlen voor aangrenzende kaarten.


METAR-TAF: